San Antonio, Texas
Traffic Map
Current Weather Conditions
San Antonio, Texas
Overcast Haze
Overcast
15°
Feels Like: 15°
Wind Chill: 15° Ceiling: 500
Heat Index: 15° Visibility: 4mi
Dew Point: 14° Wind: 8mph
Humidity: 96% Direction: 210° (SSW)
Pressure: 29.61in Gusts: 0mph
Raw Report DataKSAT 211428Z 21007KT 4SM BR OVC005 15/14 A2961 RMK AO2 T01500144 $
Traffic Incident Summary
Active as of:
Severity:
Category:
InformationThere was an issue retrieving the traffic information for this location. Please try a different location or try again shortly.
Advertisements
Track Severe Weather on mobile